createdAt,value
2019-01-27T00:00:34.656Z,99.99
2019-01-27T00:02:45.521Z,99.99
2019-01-27T00:03:25.751Z,99.99
2019-01-27T00:04:06.469Z,99.99
2019-01-27T00:04:46.904Z,99.99
2019-01-27T00:05:28.801Z,99.99
2019-01-27T00:06:09.389Z,99.99
2019-01-27T00:06:49.772Z,99.99
2019-01-27T00:07:30.311Z,99.99
2019-01-27T00:08:13.529Z,99.99
2019-01-27T00:08:51.301Z,99.99
2019-01-27T00:09:31.980Z,99.99
2019-01-27T00:10:12.637Z,99.99
2019-01-27T00:10:52.882Z,99.99
2019-01-27T00:11:33.183Z,99.99
2019-01-27T00:12:13.741Z,99.99
2019-01-27T00:12:54.545Z,99.99
2019-01-27T00:13:35.429Z,99.99
2019-01-27T00:14:15.882Z,99.99
2019-01-27T00:14:57.086Z,99.99
2019-01-27T00:15:37.358Z,99.99
2019-01-27T00:16:18.544Z,99.99
2019-01-27T00:16:59.265Z,99.99
2019-01-27T00:17:39.529Z,99.99
2019-01-27T00:18:20.054Z,99.99
2019-01-27T00:19:01.517Z,99.99
2019-01-27T00:19:42.045Z,99.99
2019-01-27T00:20:22.426Z,99.99
2019-01-27T00:21:03.879Z,99.99
2019-01-27T00:21:44.301Z,99.99
2019-01-27T00:22:26.262Z,99.99
2019-01-27T00:23:06.866Z,99.99
2019-01-27T00:23:47.258Z,99.99
2019-01-27T00:24:27.737Z,99.99
2019-01-27T00:25:08.411Z,99.99
2019-01-27T00:25:48.929Z,99.99
2019-01-27T00:26:29.609Z,99.99
2019-01-27T00:27:10.061Z,99.99
2019-01-27T00:27:50.835Z,99.99
2019-01-27T00:28:33.343Z,99.99
2019-01-27T00:29:17.079Z,99.99
2019-01-27T00:30:01.012Z,99.99
2019-01-27T00:30:42.392Z,99.99
2019-01-27T00:31:25.247Z,99.99
2019-01-27T00:33:50.597Z,99.99
2019-01-27T00:34:43.996Z,99.99
2019-01-27T00:35:36.353Z,99.99
2019-01-27T00:36:28.928Z,99.99
2019-01-27T00:37:22.153Z,99.99
2019-01-27T00:38:15.390Z,99.99
2019-01-27T00:39:07.787Z,99.99
2019-01-27T00:40:00.264Z,99.99
2019-01-27T00:40:52.974Z,99.99
2019-01-27T00:41:47.113Z,99.99
2019-01-27T00:42:42.117Z,99.99
2019-01-27T00:43:35.321Z,99.99
2019-01-27T00:44:27.726Z,99.99
2019-01-27T00:45:20.367Z,99.99
2019-01-27T00:46:12.665Z,99.99
2019-01-27T00:47:06.806Z,99.99
2019-01-27T00:47:58.707Z,99.99
2019-01-27T00:48:51.375Z,99.99
2019-01-27T00:50:52.341Z,99.99
2019-01-27T00:51:44.855Z,99.99
2019-01-27T00:52:37.421Z,99.99
2019-01-27T00:53:29.783Z,99.99
2019-01-27T00:54:23.666Z,99.99
2019-01-27T00:55:17.032Z,99.99
2019-01-27T00:56:09.776Z,99.99
2019-01-27T00:57:03.262Z,99.99
2019-01-27T00:57:56.302Z,99.99
2019-01-27T00:58:48.924Z,99.99
2019-01-27T00:59:41.298Z,99.99
2019-01-27T01:00:34.467Z,99.99
2019-01-27T01:01:26.903Z,99.99
2019-01-27T01:02:20.287Z,99.99
2019-01-27T01:03:13.166Z,99.99
2019-01-27T01:04:06.644Z,99.99
2019-01-27T01:04:59.204Z,99.99
2019-01-27T01:05:52.793Z,99.99
2019-01-27T01:06:45.409Z,99.99
2019-01-27T01:07:38.048Z,99.99
2019-01-27T01:08:35.206Z,99.99
2019-01-27T01:09:27.249Z,99.99
2019-01-27T01:10:19.281Z,99.99
2019-01-27T01:11:11.760Z,99.99
2019-01-27T01:12:03.980Z,99.99
2019-01-27T01:12:57.527Z,99.99
2019-01-27T01:13:50.406Z,99.99
2019-01-27T01:14:43.797Z,99.99
2019-01-27T01:15:36.388Z,99.99
2019-01-27T01:16:29.415Z,99.99
2019-01-27T01:17:22.104Z,99.99
2019-01-27T01:18:16.066Z,99.99
2019-01-27T01:19:12.289Z,99.99
2019-01-27T01:20:04.877Z,99.99
2019-01-27T01:21:09.143Z,99.99
2019-01-27T01:22:02.532Z,99.99
2019-01-27T01:23:07.372Z,99.99
2019-01-27T01:24:01.464Z,99.99
2019-01-27T01:25:00.564Z,99.99
2019-01-27T01:25:56.751Z,99.99
2019-01-27T01:26:48.912Z,99.99
2019-01-27T01:27:42.511Z,99.99
2019-01-27T01:28:51.337Z,99.99
2019-01-27T01:29:45.155Z,99.99
2019-01-27T01:30:37.632Z,99.99
2019-01-27T01:31:30.629Z,99.99
2019-01-27T01:32:23.079Z,99.99
2019-01-27T01:33:34.482Z,99.99
2019-01-27T01:34:28.808Z,99.99
2019-01-27T01:35:21.334Z,99.99
2019-01-27T01:36:21.092Z,99.99
2019-01-27T01:37:13.470Z,99.99
2019-01-27T01:41:58.590Z,99.88
2019-01-27T01:43:59.812Z,98.41
2019-01-27T01:44:53.042Z,98.36
2019-01-27T01:45:45.977Z,98.74
2019-01-27T01:46:39.501Z,98.93
2019-01-27T01:47:35.197Z,99.6
2019-01-27T01:48:43.767Z,99.5
2019-01-27T01:51:13.751Z,99.99
2019-01-27T01:51:51.898Z,99.99
2019-01-27T01:52:32.353Z,99.99
2019-01-27T01:53:13.020Z,99.99
2019-01-27T01:53:53.263Z,99.99
2019-01-27T01:54:34.501Z,99.99
2019-01-27T01:55:15.889Z,99.99
2019-01-27T01:55:55.401Z,99.99
2019-01-27T01:56:35.865Z,99.99
2019-01-27T01:57:16.606Z,99.99
2019-01-27T01:57:56.883Z,99.88
2019-01-27T02:01:34.268Z,99.99
2019-01-27T02:02:28.631Z,99.99
2019-01-27T02:03:20.921Z,99.99
2019-01-27T02:04:13.189Z,99.99
2019-01-27T02:05:05.745Z,99.99
2019-01-27T02:05:59.074Z,99.99
2019-01-27T02:06:51.782Z,99.99
2019-01-27T02:07:47.551Z,99.99
2019-01-27T02:08:45.889Z,99.99
2019-01-27T02:09:38.395Z,99.99
2019-01-27T02:10:34.277Z,99.99
2019-01-27T02:11:29.762Z,99.99
2019-01-27T02:12:24.223Z,99.99
2019-01-27T02:13:17.445Z,99.99
2019-01-27T02:14:11.116Z,99.99
2019-01-27T02:15:05.963Z,99.99
2019-01-27T02:15:58.429Z,99.99
2019-01-27T02:18:08.262Z,99.99
2019-01-27T02:19:00.619Z,99.99
2019-01-27T02:19:54.689Z,99.99
2019-01-27T02:20:48.339Z,99.99
2019-01-27T02:21:40.685Z,99.99
2019-01-27T02:22:33.579Z,99.99
2019-01-27T02:23:26.542Z,99.99
2019-01-27T02:24:20.295Z,99.99
2019-01-27T02:25:12.788Z,99.99
2019-01-27T02:26:07.504Z,99.99
2019-01-27T02:27:01.176Z,99.99
2019-01-27T02:27:53.562Z,99.99
2019-01-27T02:28:45.825Z,99.99
2019-01-27T02:29:38.234Z,99.99
2019-01-27T02:30:30.219Z,99.99
2019-01-27T02:31:25.627Z,99.99
2019-01-27T02:32:19.212Z,99.99
2019-01-27T02:33:11.540Z,99.99
2019-01-27T02:34:04.791Z,99.99
2019-01-27T02:34:58.717Z,99.99
2019-01-27T02:35:52.456Z,99.99
2019-01-27T02:36:44.503Z,99.99
2019-01-27T02:37:39.991Z,99.99
2019-01-27T02:38:33.275Z,99.99
2019-01-27T02:39:25.654Z,99.99
2019-01-27T02:40:20.558Z,99.99
2019-01-27T02:41:13.159Z,99.99
2019-01-27T02:42:06.204Z,99.99
2019-01-27T02:42:59.163Z,99.99
2019-01-27T02:43:52.337Z,99.99
2019-01-27T02:44:46.035Z,99.99
2019-01-27T02:45:38.238Z,99.99
2019-01-27T02:46:31.213Z,99.99
2019-01-27T02:47:24.452Z,99.99
2019-01-27T02:48:21.663Z,99.99
2019-01-27T02:49:13.928Z,99.99
2019-01-27T02:50:06.166Z,99.99
2019-01-27T02:50:59.308Z,99.99
2019-01-27T02:51:51.930Z,99.99
2019-01-27T02:52:45.012Z,99.99
2019-01-27T02:53:39.047Z,99.99
2019-01-27T02:54:31.218Z,99.99
2019-01-27T02:55:28.884Z,99.99
2019-01-27T02:56:20.958Z,99.99
2019-01-27T02:57:13.116Z,99.99
2019-01-27T02:58:01.129Z,99.99
2019-01-27T02:58:45.383Z,99.99
2019-01-27T02:59:26.098Z,99.99
2019-01-27T03:00:06.934Z,99.99
2019-01-27T03:00:47.377Z,99.99
2019-01-27T03:01:29.053Z,99.99
2019-01-27T03:02:09.055Z,99.99
2019-01-27T03:02:49.614Z,99.99
2019-01-27T03:03:31.424Z,99.99
2019-01-27T03:04:12.328Z,99.99
2019-01-27T03:04:53.172Z,99.99
2019-01-27T03:05:33.902Z,99.99
2019-01-27T03:06:16.393Z,99.99
2019-01-27T03:06:59.944Z,99.99
2019-01-27T03:07:41.973Z,99.99
2019-01-27T03:08:22.598Z,99.99
2019-01-27T03:09:06.214Z,99.99
2019-01-27T03:09:46.818Z,99.99
2019-01-27T03:10:27.549Z,99.99
2019-01-27T03:11:09.493Z,99.99
2019-01-27T03:11:51.719Z,99.99
2019-01-27T03:12:32.390Z,99.99
2019-01-27T03:13:13.603Z,99.99
2019-01-27T03:13:56.365Z,99.99
2019-01-27T03:14:37.311Z,99.99
2019-01-27T03:15:19.908Z,99.99
2019-01-27T03:16:01.120Z,99.99
2019-01-27T03:16:43.289Z,99.99
2019-01-27T03:17:25.278Z,99.99
2019-01-27T03:18:06.680Z,99.99
2019-01-27T03:18:47.591Z,99.99
2019-01-27T03:19:29.911Z,99.99
2019-01-27T03:20:14.166Z,99.99
2019-01-27T03:20:54.699Z,99.99
2019-01-27T03:21:35.316Z,99.99
2019-01-27T03:22:16.509Z,99.99
2019-01-27T03:22:57.152Z,99.99
2019-01-27T03:23:39.156Z,99.99
2019-01-27T03:24:20.902Z,99.99
2019-01-27T03:25:03.429Z,99.99
2019-01-27T03:25:44.866Z,99.99
2019-01-27T03:26:25.691Z,99.99
2019-01-27T03:27:06.529Z,99.99
2019-01-27T03:27:48.464Z,99.99
2019-01-27T03:28:29.443Z,99.99
2019-01-27T03:29:09.895Z,99.99
2019-01-27T03:29:51.130Z,99.99
2019-01-27T03:30:35.219Z,99.99
2019-01-27T03:31:15.914Z,99.99
2019-01-27T03:31:56.996Z,99.99
2019-01-27T03:32:39.082Z,99.99
2019-01-27T03:33:20.445Z,99.99
2019-01-27T03:34:02.854Z,99.99
2019-01-27T03:34:44.657Z,99.99
2019-01-27T03:35:27.146Z,99.99
2019-01-27T03:36:08.308Z,99.99
2019-01-27T03:36:49.505Z,99.99
2019-01-27T03:37:30.032Z,99.99
2019-01-27T03:38:11.629Z,99.99
2019-01-27T03:38:52.028Z,99.99
2019-01-27T03:39:33.759Z,99.99
2019-01-27T03:40:16.545Z,99.99
2019-01-27T03:40:58.771Z,99.99
2019-01-27T03:41:39.243Z,99.99
2019-01-27T03:42:21.030Z,99.99
2019-01-27T03:43:01.851Z,99.99
2019-01-27T03:43:42.961Z,99.99
2019-01-27T03:44:23.422Z,99.99
2019-01-27T03:45:04.701Z,99.99
2019-01-27T03:45:45.753Z,99.99
2019-01-27T03:46:27.570Z,99.99
2019-01-27T03:47:08.466Z,99.99
2019-01-27T03:47:48.800Z,99.99
2019-01-27T03:48:29.996Z,99.99
2019-01-27T03:49:10.466Z,99.99
2019-01-27T03:49:52.123Z,99.99
2019-01-27T03:50:34.162Z,99.99
2019-01-27T03:51:15.801Z,99.99
2019-01-27T03:51:56.847Z,99.99
2019-01-27T03:52:38.630Z,99.99
2019-01-27T03:53:19.287Z,99.99
2019-01-27T03:54:02.497Z,99.99
2019-01-27T03:54:42.616Z,99.99
2019-01-27T03:55:23.653Z,99.99
2019-01-27T03:56:04.316Z,99.99
2019-01-27T03:56:45.185Z,99.99
2019-01-27T03:57:26.042Z,99.99
2019-01-27T03:58:06.677Z,99.99
2019-01-27T03:58:47.058Z,99.99
2019-01-27T03:59:27.618Z,99.99
2019-01-27T04:00:08.810Z,99.99
2019-01-27T04:00:50.503Z,99.99
2019-01-27T04:01:32.127Z,99.99
2019-01-27T04:02:13.048Z,99.99
2019-01-27T04:02:55.055Z,99.99
2019-01-27T04:03:35.593Z,99.99
2019-01-27T04:04:16.276Z,99.99
2019-01-27T04:04:57.403Z,99.99
2019-01-27T04:05:38.224Z,99.99
2019-01-27T04:06:19.476Z,99.99
2019-01-27T04:06:59.799Z,99.99
2019-01-27T04:07:41.734Z,99.99
2019-01-27T04:08:22.327Z,99.99
2019-01-27T04:09:03.296Z,99.99
2019-01-27T04:09:43.882Z,99.99
2019-01-27T04:10:24.534Z,99.99
2019-01-27T04:11:07.570Z,99.99
2019-01-27T04:11:49.164Z,99.99
2019-01-27T04:12:29.771Z,99.99
2019-01-27T04:13:10.909Z,99.99
2019-01-27T04:13:53.042Z,99.99
2019-01-27T04:14:33.386Z,99.99
2019-01-27T04:15:15.063Z,99.99
2019-01-27T04:15:56.609Z,99.99
2019-01-27T04:16:37.130Z,99.99
2019-01-27T04:17:19.950Z,99.99
2019-01-27T04:18:00.768Z,99.99
2019-01-27T04:18:41.468Z,99.99
2019-01-27T04:19:22.863Z,99.99
2019-01-27T04:20:05.156Z,99.99
2019-01-27T04:20:46.087Z,99.99
2019-01-27T04:21:27.807Z,99.99
2019-01-27T04:22:08.923Z,99.99
2019-01-27T04:24:34.108Z,99.99
2019-01-27T04:25:21.153Z,99.99
2019-01-27T04:26:03.751Z,99.99
2019-01-27T04:26:44.243Z,99.99
2019-01-27T04:27:25.894Z,99.99
2019-01-27T05:12:27.774Z,99.99
2019-01-27T05:13:26.177Z,99.99
2019-01-27T05:15:42.283Z,99.99
2019-01-27T05:17:26.259Z,99.99
2019-01-27T05:18:17.207Z,99.99
2019-01-27T05:19:08.072Z,99.99
2019-01-27T05:19:59.806Z,99.99
2019-01-27T05:22:05.815Z,99.99
2019-01-27T05:22:58.509Z,99.99
2019-01-27T05:25:23.281Z,99.99
2019-01-27T05:26:15.984Z,99.99
2019-01-27T05:27:08.770Z,99.99
2019-01-27T05:28:01.344Z,99.99
2019-01-27T05:28:53.540Z,99.99
2019-01-27T05:29:46.010Z,99.99
2019-01-27T05:30:39.002Z,99.99
2019-01-27T05:31:32.304Z,99.99
2019-01-27T05:32:24.998Z,99.99
2019-01-27T05:33:19.333Z,99.99
2019-01-27T05:34:12.801Z,99.99
2019-01-27T05:35:05.287Z,99.99
2019-01-27T05:35:58.400Z,99.99
2019-01-27T05:36:50.742Z,99.99
2019-01-27T05:37:43.211Z,99.99
2019-01-27T05:38:35.894Z,99.99
2019-01-27T05:39:28.306Z,99.99
2019-01-27T05:40:21.027Z,99.99
2019-01-27T05:41:13.449Z,99.99
2019-01-27T05:42:05.755Z,99.99
2019-01-27T05:42:58.243Z,99.99
2019-01-27T05:43:50.861Z,99.99
2019-01-27T05:44:43.168Z,99.99
2019-01-27T05:45:35.636Z,99.99
2019-01-27T05:46:27.814Z,99.99
2019-01-27T05:47:20.521Z,99.99
2019-01-27T05:48:14.820Z,99.99
2019-01-27T05:49:06.778Z,99.99
2019-01-27T05:50:00.010Z,99.99
2019-01-27T05:50:54.763Z,99.99
2019-01-27T05:51:47.884Z,99.99
2019-01-27T05:52:40.871Z,99.99
2019-01-27T05:53:33.343Z,99.99
2019-01-27T05:54:25.459Z,99.99
2019-01-27T05:55:17.688Z,99.99
2019-01-27T05:56:10.155Z,99.99
2019-01-27T05:57:02.484Z,99.99
2019-01-27T05:57:54.916Z,99.99
2019-01-27T05:58:48.822Z,99.99
2019-01-27T05:59:42.742Z,99.99
2019-01-27T06:00:35.447Z,99.99
2019-01-27T06:01:28.563Z,99.99
2019-01-27T06:02:20.607Z,99.99
2019-01-27T06:03:14.176Z,99.99
2019-01-27T06:04:06.390Z,99.99
2019-01-27T06:04:58.752Z,99.99
2019-01-27T06:05:51.383Z,99.99
2019-01-27T06:06:43.769Z,99.99
2019-01-27T06:07:36.529Z,99.99
2019-01-27T06:08:28.931Z,99.99
2019-01-27T06:09:21.187Z,99.99
2019-01-27T06:10:14.025Z,99.99
2019-01-27T06:11:06.668Z,99.99
2019-01-27T06:11:58.807Z,99.99
2019-01-27T06:12:51.212Z,99.99
2019-01-27T06:13:43.957Z,99.99
2019-01-27T06:14:36.267Z,99.99
2019-01-27T06:15:28.758Z,99.99
2019-01-27T06:16:21.166Z,99.99
2019-01-27T06:17:14.315Z,99.99
2019-01-27T06:18:06.799Z,99.99
2019-01-27T06:18:59.710Z,99.99
2019-01-27T06:19:52.489Z,99.99
2019-01-27T06:20:44.877Z,99.99
2019-01-27T06:21:37.335Z,99.99
2019-01-27T06:22:29.317Z,99.99
2019-01-27T06:23:21.684Z,99.99
2019-01-27T06:24:11.019Z,99.99
2019-01-27T06:24:52.202Z,99.99
2019-01-27T06:25:32.826Z,99.99
2019-01-27T06:26:13.772Z,99.99
2019-01-27T06:26:55.560Z,99.99
2019-01-27T06:27:37.550Z,99.99
2019-01-27T06:28:17.975Z,99.99
2019-01-27T06:28:59.070Z,99.99
2019-01-27T06:29:40.839Z,99.99
2019-01-27T06:30:22.092Z,99.99
2019-01-27T06:31:03.113Z,99.99
2019-01-27T06:31:44.920Z,99.99
2019-01-27T06:32:26.261Z,99.99
2019-01-27T06:33:07.088Z,99.99
2019-01-27T06:33:47.475Z,99.99
2019-01-27T06:34:27.942Z,99.99
2019-01-27T06:35:08.996Z,99.99
2019-01-27T06:35:50.880Z,99.99
2019-01-27T06:36:32.398Z,99.99
2019-01-27T06:37:13.755Z,99.99
2019-01-27T06:37:54.469Z,99.99
2019-01-27T06:38:35.356Z,99.99
2019-01-27T06:39:15.964Z,99.99
2019-01-27T06:39:56.627Z,99.99
2019-01-27T06:40:37.258Z,99.99
2019-01-27T06:41:18.189Z,99.99
2019-01-27T06:41:59.267Z,99.99
2019-01-27T06:42:45.221Z,99.99
2019-01-27T06:43:25.680Z,99.99
2019-01-27T06:44:06.040Z,99.99
2019-01-27T06:44:46.653Z,99.99
2019-01-27T06:45:26.928Z,99.99
2019-01-27T06:46:07.594Z,99.99
2019-01-27T06:46:58.924Z,99.99
2019-01-27T06:47:39.392Z,99.99
2019-01-27T06:48:19.787Z,99.99
2019-01-27T06:49:00.128Z,99.99
2019-01-27T06:49:40.962Z,99.99
2019-01-27T06:50:21.925Z,99.99
2019-01-27T06:51:03.785Z,99.99
2019-01-27T06:51:44.270Z,99.74
2019-01-27T06:52:27.846Z,99.69
2019-01-27T06:53:08.889Z,98.5
2019-01-27T06:55:34.459Z,98.36
2019-01-27T06:56:27.827Z,97.5
2019-01-27T06:57:20.182Z,98.08
2019-01-27T06:58:13.229Z,97.22
2019-01-27T06:59:05.373Z,97.13
2019-01-27T06:59:59.149Z,95.79
2019-01-27T07:00:52.209Z,94.84
2019-01-27T07:01:46.217Z,95.51
2019-01-27T07:02:38.887Z,95.03
2019-01-27T07:03:32.082Z,95.51
2019-01-27T07:04:29.443Z,94.46
2019-01-27T07:05:24.255Z,94.46
2019-01-27T07:06:17.357Z,94.27
2019-01-27T07:07:10.694Z,94.27
2019-01-27T07:08:10.764Z,95.03
2019-01-27T07:09:05.122Z,95.03
2019-01-27T07:09:59.434Z,94.56
2019-01-27T07:10:55.573Z,95.12
2019-01-27T07:11:53.679Z,95.12
2019-01-27T07:12:46.562Z,95.22
2019-01-27T07:13:41.320Z,96.17
2019-01-27T07:14:35.236Z,96.36
2019-01-27T07:15:29.539Z,96.74
2019-01-27T07:16:22.106Z,96.94
2019-01-27T07:17:15.125Z,97.41
2019-01-27T07:18:08.103Z,96.65
2019-01-27T07:19:02.169Z,96.65
2019-01-27T07:19:56.111Z,96.6
2019-01-27T07:20:51.195Z,96.5
2019-01-27T07:21:47.082Z,96.31
2019-01-27T07:22:42.438Z,97.36
2019-01-27T07:23:37.613Z,97.55
2019-01-27T07:24:30.918Z,98.03
2019-01-27T07:25:23.858Z,98.12
2019-01-27T07:26:19.943Z,98.6
2019-01-27T07:27:14.490Z,98.41
2019-01-27T07:28:10.005Z,98.69
2019-01-27T07:29:03.979Z,98.69
2019-01-27T07:29:57.667Z,99.07
2019-01-27T07:30:50.551Z,98.88
2019-01-27T07:31:43.424Z,98.88
2019-01-27T07:32:36.965Z,98.69
2019-01-27T07:33:29.846Z,98.69
2019-01-27T07:34:23.704Z,98.69
2019-01-27T07:35:19.814Z,98.97
2019-01-27T07:36:14.313Z,98.69
2019-01-27T07:37:09.626Z,99.84
2019-01-27T07:38:03.486Z,99.74
2019-01-27T07:38:59.463Z,99.26
2019-01-27T07:39:54.725Z,99.99
2019-01-27T07:40:48.275Z,99.99
2019-01-27T07:41:48.603Z,99.99
2019-01-27T07:42:44.144Z,99.88
2019-01-27T07:43:40.052Z,98.27
2019-01-27T07:44:34.829Z,98.08
2019-01-27T07:45:31.738Z,97.6
2019-01-27T07:46:31.705Z,97.31
2019-01-27T07:47:28.280Z,96.46
2019-01-27T07:48:36.438Z,97.13
2019-01-27T07:49:38.657Z,96.84
2019-01-27T07:50:32.494Z,95.89
2019-01-27T07:51:28.797Z,96.36
2019-01-27T07:52:22.579Z,96.36
2019-01-27T07:53:18.360Z,96.36
2019-01-27T07:54:11.585Z,95.79
2019-01-27T07:55:05.022Z,96.17
2019-01-27T07:55:57.732Z,96.74
2019-01-27T07:56:51.411Z,95.79
2019-01-27T07:57:44.558Z,95.89
2019-01-27T07:58:40.727Z,97.31
2019-01-27T07:59:34.289Z,96.89
2019-01-27T08:00:27.642Z,95.27
2019-01-27T08:01:21.689Z,93.94
2019-01-27T08:02:14.831Z,92.7
2019-01-27T08:03:12.019Z,93.18
2019-01-27T08:04:01.221Z,92.84
2019-01-27T08:04:55.608Z,92.79
2019-01-27T08:05:48.717Z,92.99
2019-01-27T08:06:42.177Z,93.27
2019-01-27T08:07:35.121Z,92.79
2019-01-27T08:08:28.523Z,93.18
2019-01-27T08:09:22.233Z,92.99
2019-01-27T08:10:14.865Z,92.32
2019-01-27T08:11:07.046Z,91.46
2019-01-27T08:12:00.781Z,91.75
2019-01-27T08:12:54.238Z,91.27
2019-01-27T08:13:46.449Z,91.17
2019-01-27T08:14:39.921Z,91.42
2019-01-27T08:15:33.533Z,91.84
2019-01-27T08:16:26.196Z,92.22
2019-01-27T08:17:19.549Z,92.22
2019-01-27T08:18:26.769Z,90.99
2019-01-27T08:19:19.160Z,90.51
2019-01-27T08:20:12.298Z,89.84
2019-01-27T08:21:05.202Z,88.42
2019-01-27T08:21:57.492Z,88.6
2019-01-27T08:22:50.343Z,87.51
2019-01-27T08:23:46.218Z,87.32
2019-01-27T08:24:39.179Z,87.32
2019-01-27T08:26:49.643Z,85.17
2019-01-27T08:27:43.418Z,83.84
2019-01-27T08:28:38.800Z,83.93
2019-01-27T08:30:48.680Z,81.21
2019-01-27T08:31:43.146Z,81.59
2019-01-27T08:32:37.403Z,81.59
2019-01-27T08:33:31.535Z,82.03
2019-01-27T08:34:24.676Z,82.5
2019-01-27T08:35:17.568Z,82.89
2019-01-27T08:36:14.942Z,81.93
2019-01-27T08:37:10.146Z,82.35
2019-01-27T08:38:04.950Z,82.31
2019-01-27T08:38:58.524Z,82.69
2019-01-27T08:39:52.784Z,82.5
2019-01-27T08:40:46.693Z,82.98
2019-01-27T08:41:41.900Z,83.36
2019-01-27T08:42:35.033Z,84.22
2019-01-27T08:45:36.824Z,85.99
2019-01-27T08:46:32.567Z,85.89
2019-01-27T08:52:10.595Z,85.6
2019-01-27T08:52:55.543Z,85.32
2019-01-27T08:53:35.991Z,84.75
2019-01-27T08:54:24.317Z,84.65
2019-01-27T08:55:06.459Z,83.22
2019-01-27T08:57:21.609Z,84.75
2019-01-27T08:58:15.074Z,84.94
2019-01-27T08:59:10.516Z,83.61
2019-01-27T09:00:03.090Z,84.65
2019-01-27T09:00:56.493Z,83.41
2019-01-27T09:01:49.256Z,83.03
2019-01-27T09:02:44.754Z,83.41
2019-01-27T09:03:38.131Z,83.13
2019-01-27T09:04:34.947Z,82.84
2019-01-27T09:10:58.095Z,82.37
2019-01-27T09:11:50.331Z,81.7
2019-01-27T09:12:45.568Z,82.84
2019-01-27T09:13:53.364Z,82.7
2019-01-27T09:14:46.437Z,83.56
2019-01-27T09:15:42.938Z,84.42
2019-01-27T09:16:34.934Z,85.37
2019-01-27T09:17:27.254Z,85.47
2019-01-27T09:18:19.801Z,86.61
2019-01-27T09:19:15.249Z,86.51
2019-01-27T09:20:07.625Z,87.37
2019-01-27T09:21:04.834Z,85.8
2019-01-27T09:21:58.142Z,85.94
2019-01-27T09:22:57.068Z,86.51
2019-01-27T09:23:49.553Z,86.51
2019-01-27T09:24:42.381Z,87.18
2019-01-27T09:25:34.592Z,87.75
2019-01-27T09:26:28.419Z,88.04
2019-01-27T09:27:22.314Z,87.85
2019-01-27T09:28:14.384Z,87.71
2019-01-27T09:29:12.756Z,87.27
2019-01-27T09:30:07.878Z,87.65
2019-01-27T09:31:00.322Z,87.08
2019-01-27T09:31:54.330Z,86.61
2019-01-27T09:32:47.397Z,87.75
2019-01-27T09:33:40.872Z,88.23
2019-01-27T09:34:33.839Z,87.56
2019-01-27T09:35:26.481Z,86.51
2019-01-27T09:36:19.755Z,86.32
2019-01-27T09:37:15.470Z,86.9
2019-01-27T09:38:11.307Z,87.52
2019-01-27T09:39:05.478Z,88.09
2019-01-27T09:40:00.361Z,89.32
2019-01-27T09:40:55.606Z,89.51
2019-01-27T09:41:50.892Z,89.7
2019-01-27T09:44:38.528Z,90.56
2019-01-27T09:45:32.955Z,91.51
2019-01-27T09:46:28.133Z,91.61
2019-01-27T09:47:21.199Z,91.99
2019-01-27T09:48:14.995Z,91.8
2019-01-27T09:49:09.452Z,92.36
2019-01-27T09:50:01.983Z,92.46
2019-01-27T09:50:56.855Z,92.46
2019-01-27T09:51:50.582Z,91.13
2019-01-27T09:52:42.992Z,90.84
2019-01-27T09:53:35.481Z,90.75
2019-01-27T09:54:29.326Z,90.47
2019-01-27T09:55:21.605Z,89.8
2019-01-27T09:56:15.525Z,89.7
2019-01-27T09:57:07.455Z,90.47
2019-01-27T09:58:03.372Z,90.47
2019-01-27T09:59:36.646Z,89.7
2019-01-27T10:00:29.530Z,89.61
2019-01-27T10:01:28.740Z,90.18
2019-01-27T10:02:37.873Z,88.89
2019-01-27T10:03:54.170Z,88.42
2019-01-27T10:06:20.259Z,86.42
2019-01-27T10:07:18.637Z,85.18
2019-01-27T10:08:18.789Z,85.37
2019-01-27T10:09:16.168Z,86.13
2019-01-27T10:10:14.124Z,86.9
2019-01-27T10:11:12.467Z,87.08
2019-01-27T10:12:07.249Z,87.27
2019-01-27T10:18:35.571Z,85.89
2019-01-27T10:19:37.955Z,84.65
2019-01-27T10:20:35.647Z,84.27
2019-01-27T10:21:40.767Z,85.03
2019-01-27T10:22:46.046Z,83.41
2019-01-27T10:23:40.603Z,83.61
2019-01-27T10:24:52.633Z,84.94
2019-01-27T10:25:49.087Z,84.65
2019-01-27T10:26:45.982Z,85.13
2019-01-27T11:07:20.310Z,87.85
2019-01-27T11:08:12.877Z,88.27
2019-01-27T11:09:08.144Z,88.56
2019-01-27T11:11:18.689Z,87.98
2019-01-27T11:12:01.074Z,88.51
2019-01-27T11:12:42.373Z,88.6
2019-01-27T11:13:26.883Z,88.46
2019-01-27T11:14:09.368Z,88.7
2019-01-27T11:14:52.721Z,88.75
2019-01-27T11:15:36.867Z,88.89
2019-01-27T11:16:20.120Z,88.56
2019-01-27T11:17:04.714Z,88.27
2019-01-27T11:17:48.669Z,88.27
2019-01-27T11:18:29.086Z,88.56
2019-01-27T11:21:39.182Z,86.51
2019-01-27T11:22:39.607Z,84.98
2019-01-27T11:23:36.683Z,84.22
2019-01-27T11:25:32.795Z,84.98
2019-01-27T11:26:29.558Z,84.69
2019-01-27T11:27:42.565Z,83.93
2019-01-27T11:38:38.669Z,78.83
2019-01-27T11:39:24.264Z,79.68
2019-01-27T11:40:06.512Z,79.4
2019-01-27T11:40:48.467Z,79.11
2019-01-27T11:41:30.828Z,79.49
2019-01-27T11:42:12.227Z,79.21
2019-01-27T11:42:56.383Z,79.49
2019-01-27T11:43:37.021Z,79.3
2019-01-27T11:44:19.489Z,79.78
2019-01-27T11:45:01.528Z,78.83
2019-01-27T11:45:41.948Z,79.49
2019-01-27T11:46:22.316Z,79.78
2019-01-27T11:47:04.690Z,80.35
2019-01-27T11:47:45.308Z,79.59
2019-01-27T11:48:25.693Z,79.78
2019-01-27T11:49:07.240Z,79.97
2019-01-27T11:49:47.677Z,81.12
2019-01-27T11:50:33.577Z,80.35
2019-01-27T11:51:14.893Z,81.07
2019-01-27T11:53:22.120Z,81.59
2019-01-27T11:55:19.321Z,80.64
2019-01-27T11:55:59.962Z,80.92
2019-01-27T11:56:40.723Z,80.07
2019-01-27T11:57:20.902Z,80.44
2019-01-27T11:58:02.353Z,80.07
2019-01-27T11:58:42.928Z,79.59
2019-01-27T11:59:23.359Z,79.97
2019-01-27T12:00:04.638Z,80.26
2019-01-27T12:00:45.103Z,79.78
2019-01-27T12:01:25.646Z,79.11
2019-01-27T12:02:06.239Z,79.3
2019-01-27T12:02:46.950Z,79.11
2019-01-27T12:03:27.107Z,79.3
2019-01-27T12:04:07.535Z,79.59
2019-01-27T12:04:48.374Z,79.49
2019-01-27T12:05:29.688Z,78.44
2019-01-27T12:06:10.116Z,79.06
2019-01-27T12:06:50.544Z,78.73
2019-01-27T12:07:38.961Z,79.3
2019-01-27T12:08:19.473Z,78.83
2019-01-27T12:08:59.941Z,79.35
2019-01-27T12:09:40.343Z,78.92
2019-01-27T12:10:20.909Z,78.96
2019-01-27T12:11:02.262Z,77.72
2019-01-27T12:11:42.509Z,76.96
2019-01-27T12:12:24.077Z,76.57
2019-01-27T12:13:04.580Z,76.57
2019-01-27T12:13:44.999Z,76.67
2019-01-27T12:14:25.611Z,77.15
2019-01-27T12:15:06.838Z,76.96
2019-01-27T12:15:47.217Z,77.25
2019-01-27T12:16:27.747Z,77.44
2019-01-27T12:17:08.210Z,77.91
2019-01-27T12:17:48.601Z,78.1
2019-01-27T12:18:29.027Z,77.72
2019-01-27T12:19:09.538Z,77.82
2019-01-27T12:19:50.095Z,77.09
2019-01-27T12:20:31.301Z,76.62
2019-01-27T12:21:11.625Z,75.95
2019-01-27T12:21:52.050Z,76.42
2019-01-27T12:22:32.426Z,75.18
2019-01-27T12:23:12.897Z,74.99
2019-01-27T12:23:55.109Z,74.61
2019-01-27T12:24:35.554Z,74.13
2019-01-27T12:25:16.363Z,74.04
2019-01-27T12:25:56.554Z,73.56
2019-01-27T12:26:36.869Z,74.04
2019-01-27T12:27:18.107Z,73.47
2019-01-27T12:27:58.591Z,73.94
2019-01-27T12:28:41.542Z,73.18
2019-01-27T12:29:22.017Z,73.37
2019-01-27T12:30:02.815Z,73.47
2019-01-27T12:30:43.143Z,73.47
2019-01-27T12:31:23.592Z,73.94
2019-01-27T12:32:04.869Z,74.23
2019-01-27T12:32:45.281Z,74.99
2019-01-27T12:33:25.713Z,74.61
2019-01-27T12:34:06.324Z,74.42
2019-01-27T12:34:46.750Z,74.23
2019-01-27T12:35:27.158Z,74.04
2019-01-27T12:36:07.591Z,73.75
2019-01-27T12:36:47.967Z,74.8
2019-01-27T12:37:28.591Z,74.71
2019-01-27T12:38:09.547Z,74.61
2019-01-27T12:38:49.952Z,74.71
2019-01-27T12:39:31.392Z,74.71
2019-01-27T12:40:12.098Z,73.94
2019-01-27T12:40:52.360Z,73.18
2019-01-27T12:41:32.832Z,73.56
2019-01-27T12:42:13.213Z,74.42
2019-01-27T12:42:53.564Z,74.48
2019-01-27T12:43:34.095Z,74.23
2019-01-27T12:44:14.673Z,74.67
2019-01-27T12:44:55.152Z,75.15
2019-01-27T12:45:35.468Z,75.91
2019-01-27T12:46:15.971Z,76.77
2019-01-27T12:46:57.174Z,76.29
2019-01-27T12:47:37.725Z,76.57
2019-01-27T12:48:18.765Z,76.39
2019-01-27T12:48:59.310Z,75.91
2019-01-27T12:49:40.627Z,75.72
2019-01-27T12:50:21.081Z,75.91
2019-01-27T12:51:01.450Z,75.05
2019-01-27T12:56:35.273Z,77.44
2019-01-27T12:57:35.494Z,76.77
2019-01-27T12:59:27.624Z,77.06
2019-01-27T13:00:10.319Z,76.29
2019-01-27T13:00:51.617Z,75.81
2019-01-27T13:01:31.988Z,76.33